createdAt,value
2022-09-25T00:00:41.811Z,0.00
2022-09-25T00:01:41.800Z,0.00
2022-09-25T00:02:41.744Z,0.00
2022-09-25T00:03:41.682Z,0.00
2022-09-25T00:04:41.662Z,0.00
2022-09-25T00:05:41.595Z,0.00
2022-09-25T00:06:41.552Z,0.00
2022-09-25T00:07:41.512Z,0.00
2022-09-25T00:08:41.461Z,0.00
2022-09-25T00:09:41.425Z,0.00
2022-09-25T00:10:41.405Z,0.00
2022-09-25T00:11:41.338Z,0.00
2022-09-25T00:12:41.296Z,0.00
2022-09-25T00:13:41.250Z,0.00
2022-09-25T00:14:41.211Z,0.00
2022-09-25T00:15:41.170Z,0.00
2022-09-25T00:16:41.181Z,0.00
2022-09-25T00:17:41.083Z,0.00
2022-09-25T00:18:41.039Z,0.00
2022-09-25T00:19:40.995Z,0.00
2022-09-25T00:20:40.954Z,0.00
2022-09-25T00:21:40.909Z,0.00
2022-09-25T00:22:40.892Z,0.00
2022-09-25T00:23:40.827Z,0.00
2022-09-25T00:24:40.788Z,0.00
2022-09-25T00:25:40.741Z,0.00
2022-09-25T00:26:40.695Z,0.00
2022-09-25T00:27:40.652Z,0.00
2022-09-25T00:28:40.628Z,0.00
2022-09-25T00:29:40.571Z,0.00
2022-09-25T00:30:40.615Z,0.00
2022-09-25T00:31:40.481Z,0.00
2022-09-25T00:32:40.442Z,0.00
2022-09-25T00:33:40.399Z,0.00
2022-09-25T00:34:40.485Z,0.00
2022-09-25T00:35:40.316Z,0.00
2022-09-25T00:36:40.271Z,0.00
2022-09-25T00:37:40.226Z,0.00
2022-09-25T00:38:40.209Z,0.00
2022-09-25T00:39:40.171Z,0.00
2022-09-25T00:40:40.176Z,0.00
2022-09-25T00:41:40.056Z,0.00
2022-09-25T00:42:40.025Z,0.00
2022-09-25T00:43:39.970Z,0.00
2022-09-25T00:44:39.948Z,0.00
2022-09-25T00:45:39.973Z,0.00
2022-09-25T00:46:39.896Z,0.00
2022-09-25T00:47:39.800Z,0.00
2022-09-25T00:48:39.757Z,0.00
2022-09-25T00:49:39.714Z,0.00
2022-09-25T00:50:39.686Z,0.00
2022-09-25T00:51:39.629Z,0.00
2022-09-25T00:52:39.586Z,0.00
2022-09-25T00:53:39.541Z,0.00
2022-09-25T00:54:39.497Z,0.00
2022-09-25T00:55:39.478Z,0.00
2022-09-25T00:56:39.416Z,0.00
2022-09-25T00:57:39.372Z,0.00
2022-09-25T00:58:39.328Z,0.00
2022-09-25T00:59:39.289Z,0.00
2022-09-25T01:00:39.241Z,0.00
2022-09-25T01:01:39.400Z,0.00
2022-09-25T01:02:39.222Z,0.00
2022-09-25T01:03:39.112Z,0.00
2022-09-25T01:04:39.072Z,0.00
2022-09-25T01:05:39.029Z,0.00
2022-09-25T01:06:38.982Z,0.00
2022-09-25T01:07:38.968Z,0.00
2022-09-25T01:08:38.906Z,0.00
2022-09-25T01:09:38.859Z,0.00
2022-09-25T01:10:38.813Z,0.00
2022-09-25T01:11:38.779Z,0.00
2022-09-25T01:12:38.729Z,0.00
2022-09-25T01:13:38.715Z,0.00
2022-09-25T01:14:38.649Z,0.00
2022-09-25T01:15:38.599Z,0.00
2022-09-25T01:16:38.592Z,0.00
2022-09-25T01:17:38.519Z,0.00
2022-09-25T01:18:38.469Z,0.00
2022-09-25T01:19:38.445Z,0.00
2022-09-25T01:20:38.388Z,0.00
2022-09-25T01:21:38.356Z,0.00
2022-09-25T01:22:38.298Z,0.00
2022-09-25T01:23:38.255Z,0.00
2022-09-25T01:24:39.729Z,0.00
2022-09-25T01:25:38.169Z,0.00
2022-09-25T01:26:38.149Z,0.00
2022-09-25T01:27:38.085Z,0.00
2022-09-25T01:28:38.041Z,0.00
2022-09-25T01:29:37.998Z,0.00
2022-09-25T01:30:37.988Z,0.00
2022-09-25T01:31:37.912Z,0.00
2022-09-25T01:32:37.908Z,0.00
2022-09-25T01:33:37.829Z,0.00
2022-09-25T01:34:37.790Z,0.00
2022-09-25T01:35:37.745Z,0.00
2022-09-25T01:36:37.696Z,0.00
2022-09-25T01:37:37.660Z,0.00
2022-09-25T01:38:37.634Z,0.00
2022-09-25T01:39:37.571Z,0.00
2022-09-25T01:40:37.575Z,0.00
2022-09-25T01:41:37.488Z,0.00
2022-09-25T01:42:37.448Z,0.00
2022-09-25T01:43:37.399Z,0.00
2022-09-25T01:44:37.385Z,0.00
2022-09-25T01:45:37.357Z,0.00
2022-09-25T01:46:37.303Z,0.00
2022-09-25T01:47:37.232Z,0.00
2022-09-25T01:48:37.192Z,0.00
2022-09-25T01:49:37.150Z,0.00
2022-09-25T01:50:37.110Z,0.00
2022-09-25T01:51:37.062Z,0.00
2022-09-25T01:52:37.029Z,0.00
2022-09-25T01:53:36.971Z,0.00
2022-09-25T01:54:36.942Z,0.00
2022-09-25T01:55:36.890Z,0.00
2022-09-25T01:56:36.846Z,0.00
2022-09-25T01:57:36.803Z,0.00
2022-09-25T01:58:36.762Z,0.00
2022-09-25T01:59:36.733Z,0.00
2022-09-25T02:00:36.680Z,0.00
2022-09-25T02:01:36.688Z,0.00
2022-09-25T02:02:36.646Z,0.00
2022-09-25T02:03:36.547Z,0.00
2022-09-25T02:04:36.517Z,0.00
2022-09-25T02:05:36.456Z,0.00
2022-09-25T02:06:36.416Z,0.00
2022-09-25T02:07:36.383Z,0.00
2022-09-25T02:08:36.334Z,0.00
2022-09-25T02:09:36.300Z,0.00
2022-09-25T02:10:36.250Z,0.00
2022-09-25T02:11:36.198Z,0.00
2022-09-25T02:12:36.163Z,0.00
2022-09-25T02:13:36.124Z,0.00
2022-09-25T02:14:36.097Z,0.00
2022-09-25T02:15:36.033Z,0.00
2022-09-25T02:16:36.086Z,0.00
2022-09-25T02:17:35.949Z,0.00
2022-09-25T02:18:35.907Z,0.00
2022-09-25T02:19:35.866Z,0.00
2022-09-25T02:20:35.848Z,0.00
2022-09-25T02:21:35.778Z,0.00
2022-09-25T02:22:35.738Z,0.00
2022-09-25T02:23:35.757Z,0.00
2022-09-25T02:24:35.649Z,0.00
2022-09-25T02:25:35.608Z,0.00
2022-09-25T02:26:35.748Z,0.00
2022-09-25T02:27:35.522Z,0.00
2022-09-25T02:28:35.477Z,0.00
2022-09-25T02:29:35.438Z,0.00
2022-09-25T02:30:35.439Z,0.00
2022-09-25T02:31:35.357Z,0.00
2022-09-25T02:32:35.321Z,0.00
2022-09-25T02:33:35.271Z,0.00
2022-09-25T02:34:35.224Z,0.00
2022-09-25T02:35:35.184Z,0.00
2022-09-25T02:36:35.153Z,0.00
2022-09-25T02:37:35.100Z,0.00
2022-09-25T02:38:35.054Z,0.00
2022-09-25T02:39:35.014Z,0.00
2022-09-25T02:40:35.037Z,0.00
2022-09-25T02:41:34.924Z,0.00
2022-09-25T02:42:34.889Z,0.00
2022-09-25T02:43:34.846Z,0.00
2022-09-25T02:44:34.799Z,0.00
2022-09-25T02:45:34.776Z,0.00
2022-09-25T02:46:34.738Z,0.00
2022-09-25T02:47:34.690Z,0.00
2022-09-25T02:48:34.632Z,0.00
2022-09-25T02:49:34.591Z,0.00
2022-09-25T02:50:34.544Z,0.00
2022-09-25T02:51:34.507Z,0.00
2022-09-25T02:52:34.478Z,0.00
2022-09-25T02:53:34.418Z,0.00
2022-09-25T02:54:34.377Z,0.00
2022-09-25T02:55:34.335Z,0.00
2022-09-25T02:56:34.293Z,0.00
2022-09-25T02:57:34.249Z,0.00
2022-09-25T02:58:34.233Z,0.00
2022-09-25T02:59:34.171Z,0.00
2022-09-25T03:00:34.120Z,0.00
2022-09-25T03:01:34.147Z,0.00
2022-09-25T03:02:34.135Z,0.00
2022-09-25T03:03:34.010Z,0.00
2022-09-25T03:04:33.964Z,0.00
2022-09-25T03:05:33.910Z,0.00
2022-09-25T03:06:33.867Z,0.00
2022-09-25T03:07:33.824Z,0.00
2022-09-25T03:08:33.780Z,0.00
2022-09-25T03:09:33.754Z,0.00
2022-09-25T03:10:33.697Z,0.00
2022-09-25T03:11:33.655Z,0.00
2022-09-25T03:12:33.611Z,0.00
2022-09-25T03:13:33.573Z,0.00
2022-09-25T03:14:33.558Z,0.00
2022-09-25T03:15:33.485Z,0.00
2022-09-25T03:16:33.523Z,0.00
2022-09-25T03:17:33.424Z,0.00
2022-09-25T03:18:33.361Z,0.00
2022-09-25T03:19:33.340Z,0.00
2022-09-25T03:20:33.274Z,0.00
2022-09-25T03:21:33.239Z,0.00
2022-09-25T03:22:33.188Z,0.00
2022-09-25T03:23:33.146Z,0.00
2022-09-25T03:24:33.122Z,0.00
2022-09-25T03:25:33.060Z,0.00
2022-09-25T03:26:33.016Z,0.00
2022-09-25T03:27:32.976Z,0.00
2022-09-25T03:28:32.934Z,0.00
2022-09-25T03:29:32.888Z,0.00
2022-09-25T03:30:32.964Z,0.00
2022-09-25T03:31:32.802Z,0.00
2022-09-25T03:32:32.765Z,0.00
2022-09-25T03:33:32.719Z,0.00
2022-09-25T03:34:32.677Z,0.00
2022-09-25T03:35:32.634Z,0.00
2022-09-25T03:36:32.616Z,0.00
2022-09-25T03:37:32.554Z,0.00
2022-09-25T03:38:32.506Z,0.00
2022-09-25T03:39:32.463Z,0.00
2022-09-25T03:40:32.769Z,0.00
2022-09-25T03:41:32.394Z,0.00
2022-09-25T03:42:32.340Z,0.00
2022-09-25T03:43:32.293Z,0.00
2022-09-25T03:44:32.252Z,0.00
2022-09-25T03:45:32.210Z,0.00
2022-09-25T03:46:32.379Z,0.00
2022-09-25T03:47:32.123Z,0.00
2022-09-25T03:48:32.081Z,0.00
2022-09-25T03:49:32.044Z,0.00
2022-09-25T03:50:31.999Z,0.00
2022-09-25T03:51:31.955Z,0.00
2022-09-25T03:52:31.927Z,0.00
2022-09-25T03:53:31.869Z,0.00
2022-09-25T03:54:31.844Z,0.00
2022-09-25T03:55:31.785Z,0.00
2022-09-25T03:56:31.743Z,0.00
2022-09-25T03:57:31.731Z,0.00
2022-09-25T03:58:31.660Z,0.00
2022-09-25T03:59:31.616Z,0.00
2022-09-25T04:00:31.600Z,0.00
2022-09-25T04:01:31.704Z,0.00
2022-09-25T04:02:31.558Z,0.00
2022-09-25T04:03:31.444Z,0.00
2022-09-25T04:04:31.410Z,0.00
2022-09-25T04:05:31.368Z,0.00
2022-09-25T04:06:31.327Z,0.00
2022-09-25T04:07:31.272Z,0.00
2022-09-25T04:08:31.234Z,0.00
2022-09-25T04:09:31.191Z,0.00
2022-09-25T04:10:31.148Z,0.00
2022-09-25T04:11:31.119Z,0.00
2022-09-25T04:12:31.066Z,0.00
2022-09-25T04:13:31.019Z,0.00
2022-09-25T04:14:30.981Z,0.00
2022-09-25T04:15:30.939Z,0.00
2022-09-25T04:16:30.917Z,0.00
2022-09-25T04:17:30.878Z,0.00
2022-09-25T04:18:30.811Z,0.00
2022-09-25T04:19:30.772Z,0.00
2022-09-25T04:20:30.729Z,0.00
2022-09-25T04:21:30.683Z,0.00
2022-09-25T04:22:30.640Z,0.00
2022-09-25T04:23:30.617Z,0.00
2022-09-25T04:24:30.556Z,0.00
2022-09-25T04:25:30.514Z,0.00
2022-09-25T04:26:30.468Z,0.00
2022-09-25T04:27:30.434Z,0.00
2022-09-25T04:28:30.384Z,0.00
2022-09-25T04:29:30.358Z,0.00
2022-09-25T04:30:30.300Z,0.00
2022-09-25T04:31:30.371Z,0.00
2022-09-25T04:32:30.213Z,0.00
2022-09-25T04:33:30.174Z,0.00
2022-09-25T04:34:30.130Z,0.00
2022-09-25T04:35:30.107Z,0.00
2022-09-25T04:36:30.043Z,0.00
2022-09-25T04:37:30.001Z,0.00
2022-09-25T04:38:29.953Z,0.00
2022-09-25T04:39:29.915Z,0.00
2022-09-25T04:40:29.902Z,0.00
2022-09-25T04:41:29.846Z,0.00
2022-09-25T04:42:29.786Z,0.00
2022-09-25T04:43:29.749Z,0.00
2022-09-25T04:44:29.704Z,0.00
2022-09-25T04:45:29.661Z,0.00
2022-09-25T04:46:29.674Z,0.00
2022-09-25T04:47:29.592Z,0.00
2022-09-25T04:48:29.533Z,0.00
2022-09-25T04:49:29.491Z,0.00
2022-09-25T04:50:29.453Z,0.00
2022-09-25T04:51:29.403Z,0.00
2022-09-25T04:52:29.367Z,0.00
2022-09-25T04:53:29.359Z,0.00
2022-09-25T04:54:29.280Z,0.00
2022-09-25T04:55:29.235Z,0.00
2022-09-25T04:56:29.189Z,0.00
2022-09-25T04:57:56.493Z,0.00
2022-09-25T04:58:29.107Z,0.00
2022-09-25T04:59:29.102Z,0.00
2022-09-25T05:00:29.038Z,0.00
2022-09-25T05:01:29.088Z,0.00
2022-09-25T05:02:29.076Z,0.00
2022-09-25T05:03:28.961Z,0.00
2022-09-25T05:04:28.848Z,0.00
2022-09-25T05:05:28.836Z,0.00
2022-09-25T05:06:28.769Z,0.00
2022-09-25T05:07:28.727Z,0.00
2022-09-25T05:08:28.707Z,0.00
2022-09-25T05:09:28.639Z,0.00
2022-09-25T05:10:28.622Z,0.00
2022-09-25T05:11:28.553Z,0.00
2022-09-25T05:12:28.515Z,0.00
2022-09-25T05:13:28.468Z,0.00
2022-09-25T05:14:28.428Z,5.63
2022-09-25T05:15:28.398Z,5.63
2022-09-25T05:16:28.394Z,5.63
2022-09-25T05:17:28.297Z,5.63
2022-09-25T05:18:28.257Z,5.63
2022-09-25T05:19:28.215Z,5.63
2022-09-25T05:20:28.178Z,5.63
2022-09-25T05:21:28.130Z,5.63
2022-09-25T05:22:28.085Z,11.25
2022-09-25T05:23:28.041Z,11.25
2022-09-25T05:24:28.001Z,11.25
2022-09-25T05:25:27.961Z,11.25
2022-09-25T05:26:28.032Z,11.25
2022-09-25T05:27:27.887Z,16.88
2022-09-25T05:28:27.831Z,16.88
2022-09-25T05:29:27.787Z,16.88
2022-09-25T05:30:27.745Z,16.88
2022-09-25T05:31:27.723Z,22.50
2022-09-25T05:32:27.684Z,22.50
2022-09-25T05:33:27.619Z,22.50
2022-09-25T05:34:27.574Z,22.50
2022-09-25T05:35:27.535Z,22.50
2022-09-25T05:36:27.501Z,28.13
2022-09-25T05:37:27.448Z,28.13
2022-09-25T05:38:27.421Z,28.13
2022-09-25T05:39:27.366Z,28.13
2022-09-25T05:40:27.355Z,28.13
2022-09-25T05:41:27.275Z,28.13
2022-09-25T05:42:27.234Z,33.75
2022-09-25T05:43:27.191Z,33.75
2022-09-25T05:44:27.168Z,33.75
2022-09-25T05:45:27.108Z,39.38
2022-09-25T05:46:27.138Z,39.38
2022-09-25T05:47:27.017Z,39.38
2022-09-25T05:48:26.982Z,45.00
2022-09-25T05:49:26.943Z,45.00
2022-09-25T05:50:27.037Z,50.63
2022-09-25T05:51:26.893Z,56.25
2022-09-25T05:52:26.807Z,61.88
2022-09-25T05:53:26.767Z,67.50
2022-09-25T05:54:26.721Z,67.50
2022-09-25T05:55:26.684Z,73.13
2022-09-25T05:56:26.637Z,78.75
2022-09-25T05:57:26.632Z,84.38
2022-09-25T05:58:26.552Z,95.63
2022-09-25T05:59:26.508Z,101.25
2022-09-25T06:03:47.595Z,129.38
2022-09-25T06:04:47.547Z,140.63
2022-09-25T06:05:47.501Z,146.25
2022-09-25T06:06:47.457Z,135.00
2022-09-25T06:07:47.410Z,129.38
2022-09-25T06:08:47.371Z,151.88
2022-09-25T06:09:47.344Z,180.00
2022-09-25T06:10:47.290Z,196.88
2022-09-25T06:11:47.244Z,202.50
2022-09-25T06:12:47.202Z,196.88
2022-09-25T06:13:50.721Z,202.50
2022-09-25T06:14:47.115Z,208.13
2022-09-25T06:15:47.120Z,230.63
2022-09-25T06:16:47.067Z,264.38
2022-09-25T06:17:46.986Z,286.88
2022-09-25T06:18:46.941Z,286.88
2022-09-25T06:19:46.907Z,281.25
2022-09-25T06:20:46.855Z,286.88
2022-09-25T06:21:46.819Z,303.75
2022-09-25T06:22:46.817Z,326.25
2022-09-25T06:23:46.775Z,360.00
2022-09-25T06:24:46.684Z,393.75
2022-09-25T06:25:46.642Z,399.38
2022-09-25T06:26:46.604Z,405.00
2022-09-25T06:27:46.582Z,433.13
2022-09-25T06:28:46.541Z,455.63
2022-09-25T06:29:46.471Z,483.75
2022-09-25T06:30:46.500Z,495.00
2022-09-25T06:31:46.434Z,495.00
2022-09-25T06:32:46.350Z,489.38
2022-09-25T06:33:46.325Z,489.38
2022-09-25T06:34:46.262Z,489.38
2022-09-25T06:35:46.220Z,483.75
2022-09-25T06:36:46.178Z,478.13
2022-09-25T06:37:46.135Z,461.25
2022-09-25T06:38:46.095Z,444.38
2022-09-25T06:39:46.064Z,433.13
2022-09-25T06:40:46.049Z,421.88
2022-09-25T06:41:45.968Z,433.13
2022-09-25T06:42:45.924Z,455.63
2022-09-25T06:43:45.881Z,472.50
2022-09-25T06:44:45.847Z,478.13
2022-09-25T06:45:45.810Z,489.38
2022-09-25T06:46:45.800Z,511.88
2022-09-25T06:47:45.720Z,545.63
2022-09-25T06:48:45.674Z,573.75
2022-09-25T06:49:45.636Z,596.25
2022-09-25T06:50:45.590Z,601.88
2022-09-25T06:51:45.564Z,601.88
2022-09-25T06:52:45.509Z,596.25
2022-09-25T06:53:45.468Z,579.38
2022-09-25T06:54:45.427Z,545.63
2022-09-25T06:55:45.402Z,511.88
2022-09-25T06:56:45.340Z,478.13
2022-09-25T06:57:45.329Z,455.63
2022-09-25T06:58:45.259Z,433.13
2022-09-25T06:59:45.218Z,399.38
2022-09-25T07:00:45.175Z,371.25
2022-09-25T07:01:45.182Z,360.00
2022-09-25T07:02:45.114Z,365.63
2022-09-25T07:03:45.074Z,360.00
2022-09-25T07:04:45.004Z,337.50
2022-09-25T07:05:44.968Z,320.63
2022-09-25T07:06:44.927Z,315.00
2022-09-25T07:07:44.895Z,315.00
2022-09-25T07:08:44.840Z,309.38
2022-09-25T07:09:44.828Z,309.38
2022-09-25T07:10:45.821Z,331.88
2022-09-25T07:11:44.720Z,348.75
2022-09-25T07:12:44.677Z,337.50
2022-09-25T07:13:44.635Z,320.63
2022-09-25T07:14:44.595Z,303.75
2022-09-25T07:15:44.631Z,298.13
2022-09-25T07:16:44.513Z,298.13
2022-09-25T07:17:44.468Z,292.50
2022-09-25T07:18:44.430Z,298.13
2022-09-25T07:19:44.412Z,303.75
2022-09-25T07:20:44.345Z,298.13
2022-09-25T07:21:44.329Z,275.63
2022-09-25T07:22:44.266Z,247.50
2022-09-25T07:23:44.222Z,219.38
2022-09-25T07:24:44.187Z,202.50
2022-09-25T07:25:44.137Z,202.50
2022-09-25T07:26:44.111Z,196.88
2022-09-25T07:27:44.056Z,191.25
2022-09-25T07:28:44.029Z,180.00
2022-09-25T07:29:43.972Z,163.13
2022-09-25T07:30:43.989Z,151.88
2022-09-25T07:31:43.885Z,157.50
2022-09-25T07:32:43.871Z,157.50
2022-09-25T07:33:43.805Z,157.50
2022-09-25T07:34:43.769Z,163.13
2022-09-25T07:35:43.729Z,163.13
2022-09-25T07:36:43.682Z,168.75
2022-09-25T07:37:43.640Z,174.38
2022-09-25T07:38:43.609Z,174.38
2022-09-25T07:39:43.558Z,174.38
2022-09-25T07:40:43.592Z,174.38
2022-09-25T07:41:43.472Z,174.38
2022-09-25T07:42:43.432Z,174.38
2022-09-25T07:43:43.394Z,168.75
2022-09-25T07:44:47.435Z,157.50
2022-09-25T07:45:43.304Z,151.88
2022-09-25T07:46:43.434Z,151.88
2022-09-25T07:47:43.217Z,146.25
2022-09-25T07:48:43.180Z,140.63
2022-09-25T07:49:43.136Z,135.00
2022-09-25T07:50:43.096Z,129.38
2022-09-25T07:51:43.058Z,123.75
2022-09-25T07:52:43.030Z,112.50
2022-09-25T07:53:42.970Z,106.88
2022-09-25T07:54:42.932Z,101.25
2022-09-25T07:55:42.891Z,95.63
2022-09-25T07:56:42.850Z,95.63
2022-09-25T07:57:42.812Z,95.63
2022-09-25T07:58:42.799Z,95.63
2022-09-25T07:59:42.724Z,90.00
2022-09-25T08:00:42.682Z,90.00
2022-09-25T08:01:44.881Z,90.00
2022-09-25T08:02:42.632Z,90.00
2022-09-25T08:03:42.563Z,90.00
2022-09-25T08:04:42.538Z,95.63
2022-09-25T08:05:42.473Z,95.63
2022-09-25T08:06:42.429Z,95.63
2022-09-25T08:07:42.390Z,101.25
2022-09-25T08:08:42.347Z,101.25
2022-09-25T08:09:42.328Z,101.25
2022-09-25T08:10:42.264Z,101.25
2022-09-25T08:11:42.222Z,106.88
2022-09-25T08:12:42.196Z,101.25
2022-09-25T08:13:42.149Z,101.25
2022-09-25T08:14:42.097Z,95.63
2022-09-25T08:15:42.109Z,95.63
2022-09-25T08:16:42.011Z,90.00
2022-09-25T08:17:41.972Z,78.75
2022-09-25T08:18:41.957Z,73.13
2022-09-25T08:19:41.887Z,61.88
2022-09-25T08:20:41.843Z,56.25
2022-09-25T08:21:41.806Z,56.25
2022-09-25T08:22:41.777Z,50.63
2022-09-25T08:23:45.378Z,50.63
2022-09-25T08:24:41.714Z,50.63
2022-09-25T08:25:41.640Z,50.63
2022-09-25T08:26:41.593Z,50.63
2022-09-25T08:27:41.557Z,56.25
2022-09-25T08:28:41.510Z,61.88
2022-09-25T08:29:41.470Z,78.75
2022-09-25T08:30:41.519Z,90.00
2022-09-25T08:31:41.436Z,101.25
2022-09-25T08:32:41.342Z,106.88
2022-09-25T08:33:41.299Z,118.13
2022-09-25T08:34:41.967Z,129.38
2022-09-25T08:35:41.211Z,146.25
2022-09-25T08:36:41.203Z,157.50
2022-09-25T08:37:41.131Z,168.75
2022-09-25T08:38:41.092Z,174.38
2022-09-25T08:39:41.048Z,180.00
2022-09-25T08:40:44.436Z,191.25
2022-09-25T08:41:40.965Z,180.00
2022-09-25T08:42:40.938Z,174.38
2022-09-25T08:43:40.880Z,174.38
2022-09-25T08:44:46.013Z,168.75
2022-09-25T08:45:40.797Z,163.13
2022-09-25T08:46:40.825Z,157.50
2022-09-25T08:47:40.715Z,151.88
2022-09-25T08:48:40.674Z,157.50
2022-09-25T08:49:40.631Z,163.13
2022-09-25T08:50:40.591Z,168.75
2022-09-25T08:51:40.547Z,180.00
2022-09-25T08:52:40.530Z,196.88
2022-09-25T08:53:40.462Z,208.13
2022-09-25T08:54:42.150Z,230.63
2022-09-25T08:55:40.383Z,258.75
2022-09-25T08:56:40.343Z,292.50
2022-09-25T08:57:40.296Z,326.25
2022-09-25T08:58:40.344Z,343.13
2022-09-25T08:59:40.215Z,348.75
2022-09-25T09:00:40.173Z,337.50
2022-09-25T09:01:40.194Z,320.63
2022-09-25T09:02:40.139Z,320.63
2022-09-25T09:03:40.045Z,320.63
2022-09-25T09:04:40.024Z,320.63
2022-09-25T09:05:39.963Z,331.88
2022-09-25T09:06:39.920Z,331.88
2022-09-25T09:07:39.890Z,315.00
2022-09-25T09:08:39.839Z,292.50
2022-09-25T09:09:39.798Z,270.00
2022-09-25T09:10:39.774Z,264.38
2022-09-25T09:11:39.712Z,264.38
2022-09-25T09:12:39.684Z,270.00
2022-09-25T09:13:39.629Z,298.13
2022-09-25T09:14:39.587Z,326.25
2022-09-25T09:15:39.649Z,348.75
2022-09-25T09:16:39.540Z,354.38
2022-09-25T09:17:39.471Z,354.38
2022-09-25T09:18:39.419Z,360.00
2022-09-25T09:19:39.384Z,371.25
2022-09-25T09:20:39.337Z,393.75
2022-09-25T09:21:39.308Z,427.50
2022-09-25T09:22:39.304Z,444.38
2022-09-25T09:23:39.215Z,455.63
2022-09-25T09:24:39.171Z,478.13
2022-09-25T09:25:39.135Z,511.88
2022-09-25T09:26:39.093Z,506.25
2022-09-25T09:27:39.583Z,450.00
2022-09-25T09:28:39.035Z,382.50
2022-09-25T09:29:39.003Z,326.25
2022-09-25T09:30:38.946Z,286.88
2022-09-25T09:31:38.882Z,275.63
2022-09-25T09:32:38.843Z,264.38
2022-09-25T09:33:38.803Z,253.13
2022-09-25T09:35:04.244Z,241.88
2022-09-25T09:35:38.733Z,236.25
2022-09-25T09:36:38.675Z,247.50
2022-09-25T09:37:38.638Z,270.00
2022-09-25T09:38:38.593Z,281.25
2022-09-25T09:39:38.550Z,286.88
2022-09-25T09:40:38.572Z,298.13
2022-09-25T09:41:38.488Z,315.00
2022-09-25T09:42:38.425Z,315.00
2022-09-25T09:43:38.384Z,303.75
2022-09-25T09:44:38.340Z,275.63
2022-09-25T09:45:38.306Z,253.13
2022-09-25T09:46:38.332Z,258.75
2022-09-25T09:47:38.239Z,281.25
2022-09-25T09:48:38.182Z,309.38
2022-09-25T09:49:38.136Z,331.88
2022-09-25T09:50:42.759Z,343.13
2022-09-25T09:51:38.054Z,337.50
2022-09-25T09:52:38.012Z,337.50
2022-09-25T09:53:37.997Z,348.75
2022-09-25T09:54:37.929Z,371.25
2022-09-25T09:55:37.892Z,393.75
2022-09-25T09:56:37.847Z,410.63
2022-09-25T09:57:37.805Z,416.25
2022-09-25T09:58:37.771Z,405.00
2022-09-25T09:59:37.749Z,388.13
2022-09-25T10:00:37.678Z,365.63
2022-09-25T10:01:41.357Z,337.50
2022-09-25T10:02:37.767Z,303.75
2022-09-25T10:03:37.554Z,275.63
2022-09-25T10:04:37.518Z,264.38
2022-09-25T10:05:37.475Z,258.75
2022-09-25T10:06:37.438Z,270.00
2022-09-25T10:07:37.391Z,281.25
2022-09-25T10:08:37.365Z,281.25
2022-09-25T10:09:37.313Z,281.25
2022-09-25T10:10:37.284Z,286.88
2022-09-25T10:11:37.235Z,298.13
2022-09-25T10:12:37.190Z,326.25
2022-09-25T10:13:37.145Z,360.00
2022-09-25T10:14:37.217Z,393.75
2022-09-25T10:15:37.137Z,421.88
2022-09-25T10:16:37.021Z,438.75
2022-09-25T10:17:36.980Z,438.75
2022-09-25T10:18:36.938Z,438.75
2022-09-25T10:19:36.892Z,433.13
2022-09-25T10:20:36.871Z,427.50
2022-09-25T10:21:36.812Z,421.88
2022-09-25T10:22:36.774Z,421.88
2022-09-25T10:23:36.730Z,433.13
2022-09-25T10:24:36.689Z,433.13
2022-09-25T10:25:36.662Z,438.75
2022-09-25T10:26:36.605Z,444.38
2022-09-25T10:27:36.612Z,438.75
2022-09-25T10:28:36.515Z,438.75
2022-09-25T10:29:36.480Z,438.75
2022-09-25T10:30:36.465Z,444.38
2022-09-25T10:31:36.395Z,444.38
2022-09-25T10:32:36.360Z,444.38
2022-09-25T10:33:36.310Z,433.13
2022-09-25T10:34:36.278Z,421.88
2022-09-25T10:35:36.231Z,405.00
2022-09-25T10:36:36.209Z,393.75
2022-09-25T10:37:36.147Z,376.88
2022-09-25T10:38:36.102Z,360.00
2022-09-25T10:39:45.227Z,348.75
2022-09-25T10:40:36.116Z,326.25
2022-09-25T10:41:35.974Z,298.13
2022-09-25T10:42:35.931Z,286.88
2022-09-25T10:43:35.894Z,258.75
2022-09-25T10:44:35.846Z,230.63
2022-09-25T10:45:35.813Z,208.13
2022-09-25T10:46:35.832Z,185.63
2022-09-25T10:47:35.727Z,163.13
2022-09-25T10:48:35.678Z,151.88
2022-09-25T10:49:35.633Z,140.63
2022-09-25T10:50:35.596Z,140.63
2022-09-25T10:51:35.550Z,146.25
2022-09-25T10:52:35.682Z,157.50
2022-09-25T10:53:35.465Z,180.00
2022-09-25T10:54:39.004Z,196.88
2022-09-25T10:55:35.394Z,213.75
2022-09-25T10:56:35.339Z,230.63
2022-09-25T10:57:35.302Z,258.75
2022-09-25T10:58:35.278Z,286.88
2022-09-25T10:59:35.207Z,303.75
2022-09-25T11:00:35.165Z,315.00
2022-09-25T11:01:35.312Z,326.25
2022-09-25T11:02:35.142Z,337.50
2022-09-25T11:03:35.031Z,337.50
2022-09-25T11:04:35.013Z,331.88
2022-09-25T11:05:34.953Z,326.25
2022-09-25T11:06:34.928Z,337.50
2022-09-25T11:07:34.865Z,343.13
2022-09-25T11:08:34.822Z,348.75
2022-09-25T11:09:34.777Z,354.38
2022-09-25T11:10:34.763Z,365.63
2022-09-25T11:11:34.690Z,360.00
2022-09-25T11:12:34.650Z,360.00
2022-09-25T11:13:34.606Z,365.63
2022-09-25T11:14:34.570Z,365.63
2022-09-25T11:15:34.520Z,365.63
2022-09-25T11:16:34.528Z,360.00
2022-09-25T11:17:34.436Z,354.38
2022-09-25T11:18:34.388Z,360.00
2022-09-25T11:19:34.356Z,360.00
2022-09-25T11:20:34.375Z,365.63
2022-09-25T11:21:34.264Z,376.88
2022-09-25T11:22:34.246Z,393.75
2022-09-25T11:23:34.196Z,410.63
2022-09-25T11:24:34.135Z,427.50
2022-09-25T11:25:34.088Z,444.38
2022-09-25T11:26:34.054Z,466.88
2022-09-25T11:27:34.014Z,489.38
2022-09-25T11:28:33.996Z,495.00
2022-09-25T11:29:33.922Z,495.00
2022-09-25T11:30:33.898Z,523.13
2022-09-25T11:31:33.836Z,556.88
2022-09-25T11:32:33.797Z,579.38
2022-09-25T11:33:33.756Z,601.88
2022-09-25T11:34:33.849Z,618.75
2022-09-25T11:35:33.667Z,618.75
2022-09-25T11:36:33.628Z,596.25
2022-09-25T11:37:33.583Z,573.75
2022-09-25T11:38:33.543Z,562.50
2022-09-25T11:39:33.497Z,551.25
2022-09-25T11:40:33.515Z,523.13
2022-09-25T11:41:33.414Z,500.63
2022-09-25T11:42:33.372Z,483.75
2022-09-25T11:43:33.330Z,461.25
2022-09-25T11:44:33.288Z,433.13
2022-09-25T11:45:33.245Z,416.25
2022-09-25T11:46:33.402Z,405.00
2022-09-25T11:47:33.158Z,399.38
2022-09-25T11:48:33.120Z,399.38
2022-09-25T11:49:33.073Z,399.38
2022-09-25T11:50:33.032Z,405.00
2022-09-25T11:51:32.989Z,416.25
2022-09-25T11:52:32.984Z,438.75
2022-09-25T11:53:32.906Z,461.25
2022-09-25T11:54:34.319Z,495.00
2022-09-25T11:55:32.820Z,517.50
2022-09-25T11:56:33.136Z,534.38
2022-09-25T11:57:34.900Z,556.88
2022-09-25T11:58:32.705Z,568.13
2022-09-25T11:59:32.649Z,573.75
2022-09-25T12:00:32.606Z,568.13
2022-09-25T12:01:32.657Z,568.13
2022-09-25T12:02:32.626Z,573.75
2022-09-25T12:03:32.479Z,573.75
2022-09-25T12:04:32.467Z,573.75
2022-09-25T12:05:32.392Z,573.75
2022-09-25T12:06:32.352Z,568.13
2022-09-25T12:07:32.312Z,568.13
2022-09-25T12:08:32.273Z,556.88
2022-09-25T12:09:32.227Z,528.75
2022-09-25T12:10:32.196Z,483.75
2022-09-25T12:11:32.150Z,450.00
2022-09-25T12:12:32.099Z,416.25
2022-09-25T12:13:32.061Z,393.75
2022-09-25T12:14:32.015Z,382.50
2022-09-25T12:15:32.084Z,376.88
2022-09-25T12:16:31.986Z,365.63
2022-09-25T12:17:31.884Z,360.00
2022-09-25T12:18:34.191Z,348.75
2022-09-25T12:19:40.890Z,343.13
2022-09-25T12:20:31.759Z,337.50
2022-09-25T12:21:31.906Z,331.88
2022-09-25T12:22:31.681Z,331.88
2022-09-25T12:23:31.633Z,326.25
2022-09-25T12:24:33.171Z,320.63
2022-09-25T12:25:31.551Z,320.63
2022-09-25T12:26:31.506Z,315.00
2022-09-25T12:27:31.476Z,309.38
2022-09-25T12:28:31.418Z,303.75
2022-09-25T12:29:31.381Z,309.38
2022-09-25T12:30:31.369Z,309.38
2022-09-25T12:31:31.293Z,309.38
2022-09-25T12:32:31.274Z,309.38
2022-09-25T12:33:31.211Z,303.75
2022-09-25T12:34:31.166Z,303.75
2022-09-25T12:35:31.125Z,292.50
2022-09-25T12:36:31.080Z,281.25
2022-09-25T12:37:31.040Z,264.38
2022-09-25T12:38:31.009Z,258.75
2022-09-25T12:39:30.952Z,258.75
2022-09-25T12:40:30.949Z,264.38
2022-09-25T12:41:30.870Z,275.63
2022-09-25T12:42:30.828Z,281.25
2022-09-25T12:43:30.821Z,292.50
2022-09-25T12:44:30.746Z,303.75
2022-09-25T12:45:30.694Z,303.75
2022-09-25T12:46:30.659Z,309.38
2022-09-25T12:47:30.617Z,315.00
2022-09-25T12:48:30.573Z,309.38
2022-09-25T12:49:30.541Z,309.38
2022-09-25T12:50:30.482Z,315.00
2022-09-25T12:51:30.444Z,309.38
2022-09-25T12:52:30.401Z,309.38
2022-09-25T12:53:30.388Z,303.75